createdAt,value
2019-05-03T00:00:58.573Z,13.20
2019-05-03T00:03:28.049Z,13.10
2019-05-03T00:05:59.121Z,13.10
2019-05-03T00:08:28.610Z,13.10
2019-05-03T00:10:57.960Z,13.10
2019-05-03T00:13:27.333Z,13.10
2019-05-03T00:16:02.679Z,13.10
2019-05-03T00:18:32.784Z,13.10
2019-05-03T00:21:02.323Z,13.10
2019-05-03T00:23:32.453Z,13.10
2019-05-03T00:26:02.760Z,13.10
2019-05-03T00:28:32.342Z,13.10
2019-05-03T00:31:02.139Z,13.10
2019-05-03T00:33:31.901Z,13.10
2019-05-03T00:36:02.896Z,13.10
2019-05-03T00:38:32.622Z,13.10
2019-05-03T00:41:02.060Z,13.10
2019-05-03T00:43:31.830Z,13.10
2019-05-03T00:46:02.051Z,13.10
2019-05-03T00:48:32.629Z,13.10
2019-05-03T00:51:02.592Z,13.00
2019-05-03T00:53:32.763Z,13.00
2019-05-03T00:56:02.214Z,13.00
2019-05-03T00:58:33.228Z,13.00
2019-05-03T01:01:02.841Z,13.00
2019-05-03T01:03:32.651Z,13.00
2019-05-03T01:06:02.624Z,13.00
2019-05-03T01:08:32.630Z,13.00
2019-05-03T01:11:02.256Z,13.00
2019-05-03T01:13:32.131Z,13.00
2019-05-03T01:16:03.666Z,13.00
2019-05-03T01:18:33.017Z,13.10
2019-05-03T01:21:02.447Z,13.00
2019-05-03T01:23:32.564Z,13.00
2019-05-03T01:26:02.549Z,13.00
2019-05-03T01:28:33.485Z,13.00
2019-05-03T01:31:03.016Z,13.00
2019-05-03T01:33:32.442Z,13.00
2019-05-03T01:36:02.678Z,13.00
2019-05-03T01:38:32.416Z,13.00
2019-05-03T01:41:01.985Z,12.90
2019-05-03T01:43:33.049Z,12.90
2019-05-03T01:46:02.832Z,12.90
2019-05-03T01:48:36.883Z,12.90
2019-05-03T01:51:07.887Z,12.90
2019-05-03T02:14:44.675Z,10.20
2019-05-03T02:17:14.035Z,10.50
2019-05-03T02:19:43.396Z,10.80
2019-05-03T02:22:12.801Z,11.10
2019-05-03T02:24:42.407Z,11.30
2019-05-03T02:27:12.782Z,11.50
2019-05-03T02:29:43.220Z,11.60
2019-05-03T02:32:13.388Z,11.80
2019-05-03T02:34:44.050Z,11.90
2019-05-03T02:37:14.121Z,12.00
2019-05-03T02:39:43.622Z,12.10
2019-05-03T02:42:15.860Z,12.20
2019-05-03T02:44:46.196Z,12.20
2019-05-03T02:47:17.448Z,12.30
2019-05-03T02:49:48.463Z,12.30
2019-05-03T02:52:37.087Z,12.40
2019-05-03T02:55:10.115Z,12.40
2019-05-03T02:57:39.500Z,12.40
2019-05-03T03:00:12.707Z,12.40
2019-05-03T03:02:45.432Z,12.40
2019-05-03T03:05:16.636Z,12.50
2019-05-03T03:07:47.293Z,12.50
2019-05-03T03:10:17.174Z,12.50
2019-05-03T03:12:50.394Z,12.50
2019-05-03T03:15:19.778Z,12.50
2019-05-03T03:17:55.941Z,12.50
2019-05-03T03:20:28.245Z,12.50
2019-05-03T03:23:01.133Z,12.50
2019-05-03T03:25:36.844Z,12.50
2019-05-03T03:28:10.256Z,12.50
2019-05-03T03:30:57.176Z,12.50
2019-05-03T03:33:28.213Z,12.50
2019-05-03T03:36:01.267Z,12.50
2019-05-03T03:38:26.343Z,12.50
2019-05-03T03:40:58.922Z,12.50
2019-05-03T03:43:29.671Z,12.50
2019-05-03T03:46:01.385Z,12.50
2019-05-03T03:48:35.457Z,12.50
2019-05-03T03:51:07.162Z,12.50
2019-05-03T03:53:39.705Z,12.50
2019-05-03T03:56:12.268Z,12.50
2019-05-03T03:58:41.720Z,12.50
2019-05-03T04:01:11.694Z,12.50
2019-05-03T04:03:41.043Z,12.50
2019-05-03T04:06:10.974Z,12.50
2019-05-03T04:08:40.993Z,12.50
2019-05-03T04:11:10.417Z,12.50
2019-05-03T04:13:41.698Z,12.50
2019-05-03T04:16:20.590Z,12.50
2019-05-03T04:18:49.097Z,12.40
2019-05-03T04:21:18.519Z,12.40
2019-05-03T04:23:49.124Z,12.40
2019-05-03T04:26:18.604Z,12.40
2019-05-03T04:28:49.412Z,12.40
2019-05-03T04:31:18.768Z,12.40
2019-05-03T04:33:48.157Z,12.40
2019-05-03T04:36:17.831Z,12.40
2019-05-03T04:38:47.186Z,12.40
2019-05-03T04:41:16.654Z,12.40
2019-05-03T04:43:48.758Z,12.30
2019-05-03T04:46:19.800Z,12.30
2019-05-03T04:48:49.206Z,12.30
2019-05-03T04:51:18.580Z,12.30
2019-05-03T04:53:49.587Z,12.30
2019-05-03T04:56:18.990Z,12.30
2019-05-03T04:58:48.844Z,12.30
2019-05-03T05:01:18.325Z,12.30
2019-05-03T05:03:47.708Z,12.30
2019-05-03T05:06:17.077Z,12.30
2019-05-03T05:08:47.973Z,12.30
2019-05-03T05:11:17.428Z,12.30
2019-05-03T05:13:47.525Z,12.30
2019-05-03T05:16:16.923Z,12.30
2019-05-03T05:18:47.935Z,12.30
2019-05-03T05:21:21.655Z,12.30
2019-05-03T05:24:05.567Z,12.30
2019-05-03T05:26:45.783Z,12.30
2019-05-03T05:29:20.420Z,12.30
2019-05-03T05:31:49.866Z,12.30
2019-05-03T05:34:19.213Z,12.30
2019-05-03T05:36:48.597Z,12.30
2019-05-03T05:39:18.851Z,12.30
2019-05-03T05:41:48.396Z,12.30
2019-05-03T05:44:17.786Z,12.30
2019-05-03T05:47:00.591Z,12.30
2019-05-03T05:49:49.457Z,12.30
2019-05-03T05:52:18.816Z,12.30
2019-05-03T05:54:55.838Z,12.30
2019-05-03T05:57:26.865Z,12.30
2019-05-03T05:59:57.876Z,12.30
2019-05-03T06:02:27.317Z,12.30
2019-05-03T06:04:56.745Z,12.30
2019-05-03T06:07:44.314Z,12.40
2019-05-03T06:10:24.937Z,12.30
2019-05-03T06:12:56.064Z,12.30
2019-05-03T06:15:35.657Z,12.30
2019-05-03T06:18:09.704Z,12.30
2019-05-03T06:20:40.714Z,12.20
2019-05-03T06:23:11.805Z,12.20
2019-05-03T06:25:42.142Z,12.20
2019-05-03T06:28:19.936Z,12.10
2019-05-03T06:30:51.833Z,12.10
2019-05-03T06:33:21.208Z,12.10
2019-05-03T06:35:50.554Z,12.10
2019-05-03T06:38:22.026Z,12.10
2019-05-03T06:40:51.398Z,12.10
2019-05-03T06:43:20.758Z,12.10
2019-05-03T06:45:50.646Z,12.20
2019-05-03T06:48:22.317Z,12.20
2019-05-03T06:50:55.648Z,12.30
2019-05-03T06:53:25.598Z,12.30
2019-05-03T06:55:55.481Z,12.40
2019-05-03T06:58:33.119Z,12.50
2019-05-03T07:00:57.727Z,12.50
2019-05-03T07:03:28.715Z,12.60
2019-05-03T07:06:15.123Z,12.70
2019-05-03T07:08:49.106Z,12.70
2019-05-03T07:11:18.489Z,12.80
2019-05-03T07:13:47.898Z,12.80
2019-05-03T07:16:17.274Z,12.80
2019-05-03T07:18:46.635Z,12.80
2019-05-03T07:21:16.058Z,12.80
2019-05-03T07:23:45.439Z,12.90
2019-05-03T07:26:15.182Z,12.90
2019-05-03T07:28:49.270Z,13.00
2019-05-03T07:31:15.811Z,13.10
2019-05-03T07:33:45.271Z,13.20
2019-05-03T07:36:15.354Z,13.20
2019-05-03T07:38:46.522Z,13.30
2019-05-03T07:41:15.953Z,13.30
2019-05-03T07:43:45.649Z,13.40
2019-05-03T07:46:15.013Z,13.40
2019-05-03T07:48:45.685Z,13.40
2019-05-03T07:51:15.573Z,13.50
2019-05-03T07:53:48.059Z,13.50
2019-05-03T07:56:17.633Z,13.50
2019-05-03T07:58:59.412Z,13.60
2019-05-03T08:01:21.519Z,13.60
2019-05-03T08:03:50.996Z,13.70
2019-05-03T08:06:21.051Z,13.70
2019-05-03T08:08:50.427Z,13.80
2019-05-03T08:11:19.803Z,13.80
2019-05-03T08:13:49.222Z,14.00
2019-05-03T08:16:18.568Z,14.10
2019-05-03T08:18:47.928Z,14.20
2019-05-03T08:21:17.322Z,14.40
2019-05-03T08:23:46.704Z,14.50
2019-05-03T08:26:16.062Z,14.50
2019-05-03T08:28:48.472Z,14.60
2019-05-03T08:31:37.937Z,14.60
2019-05-03T08:34:09.049Z,14.60
2019-05-03T08:36:56.318Z,14.60
2019-05-03T08:39:26.668Z,14.60
2019-05-03T08:41:57.677Z,14.70
2019-05-03T08:44:27.562Z,14.80
2019-05-03T08:46:58.602Z,14.90
2019-05-03T08:49:28.957Z,15.00
2019-05-03T08:51:58.355Z,15.10
2019-05-03T08:54:27.748Z,15.10
2019-05-03T08:56:57.118Z,15.20
2019-05-03T08:59:32.183Z,15.20
2019-05-03T09:01:57.626Z,15.20
2019-05-03T09:04:36.325Z,15.30
2019-05-03T09:06:58.084Z,15.40
2019-05-03T09:09:29.148Z,15.50
2019-05-03T09:11:58.544Z,15.60
2019-05-03T09:14:38.721Z,15.60
2019-05-03T09:16:59.028Z,15.60
2019-05-03T09:19:28.384Z,15.60
2019-05-03T09:21:57.773Z,15.60
2019-05-03T09:24:27.243Z,15.60
2019-05-03T09:26:56.599Z,15.60
2019-05-03T09:29:25.962Z,15.60
2019-05-03T09:31:55.528Z,15.70
2019-05-03T09:34:25.668Z,15.80
2019-05-03T09:36:55.432Z,15.80
2019-05-03T09:39:24.756Z,15.80
2019-05-03T09:41:55.425Z,15.70
2019-05-03T09:44:24.904Z,15.70
2019-05-03T09:46:54.982Z,15.70
2019-05-03T09:49:25.334Z,15.70
2019-05-03T09:51:55.015Z,15.70
2019-05-03T09:54:26.458Z,15.70
2019-05-03T09:56:59.254Z,15.70
2019-05-03T09:59:31.661Z,15.60
2019-05-03T10:02:04.475Z,15.60
2019-05-03T10:04:33.522Z,15.60
2019-05-03T10:07:02.890Z,15.60
2019-05-03T10:09:32.631Z,15.60
2019-05-03T10:12:05.496Z,15.60
2019-05-03T10:14:35.405Z,15.70
2019-05-03T10:17:09.042Z,15.70
2019-05-03T10:19:40.508Z,15.70
2019-05-03T10:22:10.174Z,15.80
2019-05-03T10:24:39.992Z,15.80
2019-05-03T10:27:09.481Z,15.80
2019-05-03T10:29:38.983Z,15.90
2019-05-03T10:34:58.274Z,16.00
2019-05-03T10:37:31.547Z,16.10
2019-05-03T10:40:05.802Z,16.00
2019-05-03T10:42:35.334Z,16.00
2019-05-03T10:45:07.644Z,16.10
2019-05-03T10:47:37.007Z,16.00
2019-05-03T10:50:09.850Z,16.10
2019-05-03T10:52:44.838Z,16.00
2019-05-03T10:55:15.925Z,16.00
2019-05-03T10:57:47.201Z,16.00
2019-05-03T11:00:42.466Z,16.00
2019-05-03T11:02:51.561Z,16.00
2019-05-03T11:05:21.002Z,16.10
2019-05-03T11:07:50.384Z,16.10
2019-05-03T11:10:19.743Z,16.20
2019-05-03T11:12:49.556Z,16.30
2019-05-03T11:15:18.987Z,16.30
2019-05-03T11:17:48.345Z,16.40
2019-05-03T11:20:29.123Z,16.50
2019-05-03T11:22:54.796Z,16.60
2019-05-03T11:25:24.923Z,16.70
2019-05-03T11:27:56.103Z,16.80
2019-05-03T11:30:25.502Z,17.00
2019-05-03T11:32:56.502Z,17.10
2019-05-03T11:35:34.975Z,17.20
2019-05-03T11:38:06.358Z,17.20
2019-05-03T11:40:35.709Z,17.20
2019-05-03T11:43:05.108Z,17.20
2019-05-03T11:45:35.328Z,17.20
2019-05-03T11:48:05.666Z,17.20
2019-05-03T11:50:35.054Z,17.20
2019-05-03T11:53:05.952Z,17.20
2019-05-03T11:55:35.453Z,17.20
2019-05-03T11:58:07.301Z,17.20
2019-05-03T12:00:38.309Z,17.20
2019-05-03T12:03:09.326Z,17.20
2019-05-03T12:05:38.771Z,17.20
2019-05-03T12:08:08.129Z,17.20
2019-05-03T12:10:52.662Z,17.20
2019-05-03T12:13:15.640Z,17.30
2019-05-03T12:15:44.678Z,17.30
2019-05-03T12:18:16.360Z,17.40
2019-05-03T12:20:47.081Z,17.40
2019-05-03T12:23:17.073Z,17.50
2019-05-03T12:25:47.712Z,17.50
2019-05-03T12:28:17.691Z,17.60
2019-05-03T12:30:47.054Z,17.70
2019-05-03T12:33:16.427Z,17.90
2019-05-03T12:35:46.326Z,17.90
2019-05-03T12:38:16.634Z,18.00
2019-05-03T12:40:46.027Z,18.00
2019-05-03T12:43:15.719Z,17.90
2019-05-03T12:45:45.096Z,17.90
2019-05-03T12:48:15.507Z,17.90
2019-05-03T12:50:46.240Z,17.90
2019-05-03T12:53:16.091Z,18.00
2019-05-03T12:55:45.455Z,18.10
2019-05-03T12:58:16.693Z,18.20
2019-05-03T13:00:48.637Z,18.20
2019-05-03T13:03:19.787Z,18.20
2019-05-03T13:05:49.216Z,18.30
2019-05-03T13:08:35.282Z,18.30
2019-05-03T13:11:05.441Z,18.30
2019-05-03T13:13:35.983Z,18.30
2019-05-03T13:16:07.117Z,18.40
2019-05-03T13:18:36.565Z,18.50
2019-05-03T13:21:06.353Z,18.60
2019-05-03T13:23:36.010Z,18.60
2019-05-03T13:26:06.157Z,18.60
2019-05-03T13:28:35.712Z,18.60
2019-05-03T13:31:05.985Z,18.50
2019-05-03T13:33:35.723Z,18.50
2019-05-03T13:36:05.928Z,18.50
2019-05-03T13:38:35.400Z,18.50
2019-05-03T13:41:06.470Z,18.50
2019-05-03T13:43:36.238Z,18.50
2019-05-03T13:46:05.695Z,18.60
2019-05-03T13:48:45.321Z,18.60
2019-05-03T13:51:06.677Z,18.60
2019-05-03T13:53:36.055Z,18.60
2019-05-03T13:56:05.713Z,18.60
2019-05-03T13:58:35.770Z,18.60
2019-05-03T14:01:06.020Z,18.60
2019-05-03T14:03:36.349Z,18.50
2019-05-03T14:06:08.846Z,18.50
2019-05-03T14:08:36.915Z,18.40
2019-05-03T14:11:06.423Z,18.40
2019-05-03T14:13:35.840Z,18.40
2019-05-03T14:16:06.496Z,18.30
2019-05-03T14:18:41.179Z,18.30
2019-05-03T14:21:24.499Z,18.20
2019-05-03T14:24:09.591Z,18.10
2019-05-03T14:26:40.955Z,18.00
2019-05-03T14:29:10.579Z,18.00
2019-05-03T14:31:40.040Z,18.00
2019-05-03T14:34:09.402Z,18.00
2019-05-03T14:36:38.771Z,18.00
2019-05-03T14:39:10.448Z,18.00
2019-05-03T14:41:40.643Z,17.90
2019-05-03T14:44:10.024Z,17.90
2019-05-03T14:46:39.781Z,17.90
2019-05-03T14:49:09.149Z,17.80
2019-05-03T14:51:40.050Z,17.80
2019-05-03T14:54:10.365Z,17.80
2019-05-03T14:56:50.441Z,17.70
2019-05-03T14:59:34.667Z,17.70
2019-05-03T15:02:07.358Z,17.60
2019-05-03T15:04:37.040Z,17.60
2019-05-03T15:07:06.414Z,17.70
2019-05-03T15:09:35.778Z,17.70
2019-05-03T15:12:05.548Z,17.80
2019-05-03T15:14:35.073Z,17.80
2019-05-03T15:17:05.311Z,17.80
2019-05-03T15:19:35.115Z,17.80
2019-05-03T15:22:05.633Z,17.80
2019-05-03T15:24:35.794Z,17.80
2019-05-03T15:27:05.303Z,17.80
2019-05-03T15:29:35.448Z,17.80
2019-05-03T15:32:05.240Z,17.80
2019-05-03T15:34:35.451Z,17.70
2019-05-03T15:37:05.694Z,17.70
2019-05-03T15:39:35.375Z,17.70
2019-05-03T15:42:05.378Z,17.70
2019-05-03T15:44:48.618Z,17.70
2019-05-03T15:47:25.435Z,17.60
2019-05-03T15:49:55.399Z,17.50
2019-05-03T15:52:24.798Z,17.50
2019-05-03T15:54:55.200Z,17.50
2019-05-03T15:57:25.239Z,17.50
2019-05-03T15:59:55.229Z,17.50
2019-05-03T16:02:24.790Z,17.40
2019-05-03T16:04:56.361Z,17.40
2019-05-03T16:07:25.313Z,17.30
2019-05-03T16:09:55.332Z,17.30
2019-05-03T16:12:25.249Z,17.20
2019-05-03T16:14:55.207Z,17.10
2019-05-03T16:17:24.657Z,17.00
2019-05-03T16:19:55.729Z,16.90
2019-05-03T16:22:25.286Z,16.90
2019-05-03T16:24:55.677Z,16.90
2019-05-03T16:27:29.901Z,16.80
2019-05-03T16:29:59.745Z,16.80
2019-05-03T16:32:29.101Z,16.80
2019-05-03T16:34:58.494Z,16.70
2019-05-03T16:37:27.851Z,16.70
2019-05-03T16:39:57.862Z,16.70
2019-05-03T16:42:27.361Z,16.70
2019-05-03T16:44:56.734Z,16.60
2019-05-03T16:47:26.097Z,16.60
2019-05-03T16:49:55.527Z,16.60
2019-05-03T16:52:25.641Z,16.50
2019-05-03T16:54:55.251Z,16.40
2019-05-03T16:57:24.739Z,16.40
2019-05-03T16:59:55.083Z,16.30
2019-05-03T17:02:24.669Z,16.30
2019-05-03T17:04:55.879Z,16.30
2019-05-03T17:07:29.962Z,16.20
2019-05-03T17:10:10.348Z,16.20
2019-05-03T17:12:39.708Z,16.10
2019-05-03T17:15:10.785Z,16.10
2019-05-03T17:17:40.157Z,16.00
2019-05-03T17:20:10.124Z,16.00
2019-05-03T17:22:40.410Z,16.00
2019-05-03T17:25:10.514Z,15.90
2019-05-03T17:27:39.882Z,15.90
2019-05-03T17:30:09.545Z,15.80
2019-05-03T17:32:38.999Z,15.80
2019-05-03T17:35:08.497Z,15.80
2019-05-03T17:37:37.864Z,15.70
2019-05-03T17:40:14.743Z,15.70
2019-05-03T17:42:51.668Z,15.60
2019-05-03T17:45:22.694Z,15.60
2019-05-03T17:47:52.050Z,15.50
2019-05-03T17:50:21.426Z,15.50
2019-05-03T17:53:07.503Z,15.40
2019-05-03T17:55:41.631Z,15.30
2019-05-03T17:58:29.004Z,15.30
2019-05-03T18:01:06.098Z,15.20
2019-05-03T18:03:37.105Z,15.20
2019-05-03T18:06:08.121Z,15.10
2019-05-03T18:08:45.687Z,15.10
2019-05-03T18:11:16.704Z,15.00
2019-05-03T18:13:46.348Z,15.00
2019-05-03T18:16:15.747Z,14.90
2019-05-03T18:18:45.492Z,14.90
2019-05-03T18:21:15.202Z,14.90
2019-05-03T18:23:45.538Z,14.80
2019-05-03T18:26:15.075Z,14.80
2019-05-03T18:28:44.794Z,14.70
2019-05-03T18:31:14.672Z,14.70
2019-05-03T18:33:44.383Z,14.60
2019-05-03T18:36:14.761Z,14.60
2019-05-03T18:38:44.677Z,14.50
2019-05-03T18:41:14.564Z,14.50
2019-05-03T18:43:51.525Z,14.40
2019-05-03T18:46:25.390Z,14.30
2019-05-03T18:48:55.161Z,14.30
2019-05-03T18:51:25.302Z,14.30
2019-05-03T18:53:54.805Z,14.20
2019-05-03T18:56:25.197Z,14.20
2019-05-03T18:58:54.881Z,14.20
2019-05-03T19:01:25.354Z,14.10
2019-05-03T19:03:56.467Z,14.10
2019-05-03T19:06:25.878Z,14.00
2019-05-03T19:09:02.686Z,14.00
2019-05-03T19:11:42.700Z,14.00
2019-05-03T19:14:15.021Z,13.90
2019-05-03T19:16:50.376Z,13.90
2019-05-03T19:19:21.379Z,13.90
2019-05-03T19:21:50.748Z,13.80
2019-05-03T19:24:20.215Z,13.80
2019-05-03T19:26:49.573Z,13.80
2019-05-03T19:29:18.945Z,13.80
2019-05-03T19:31:48.416Z,13.70
2019-05-03T19:34:17.790Z,13.70
2019-05-03T19:36:47.145Z,13.70
2019-05-03T19:39:16.804Z,13.70
2019-05-03T19:41:46.166Z,13.70
2019-05-03T19:44:15.521Z,13.60
2019-05-03T19:46:45.346Z,13.60
2019-05-03T19:49:14.714Z,13.60
2019-05-03T19:51:45.158Z,13.60
2019-05-03T19:54:14.810Z,13.60
2019-05-03T19:56:44.564Z,13.60
2019-05-03T19:59:17.189Z,13.60
2019-05-03T20:01:51.273Z,13.50
2019-05-03T20:04:28.240Z,13.50
2019-05-03T20:07:11.518Z,13.50
2019-05-03T20:09:40.887Z,13.40
2019-05-03T20:12:10.236Z,13.40
2019-05-03T20:14:39.629Z,13.40
2019-05-03T20:17:09.005Z,13.30
2019-05-03T20:19:39.313Z,13.30
2019-05-03T20:22:08.732Z,13.30
2019-05-03T20:24:38.092Z,13.30
2019-05-03T20:27:07.454Z,13.30
2019-05-03T20:29:36.848Z,13.20
2019-05-03T20:32:06.226Z,13.20
2019-05-03T20:34:36.565Z,13.20
2019-05-03T20:37:06.258Z,13.10
2019-05-03T20:39:35.626Z,13.10
2019-05-03T20:42:05.147Z,13.10
2019-05-03T20:44:36.207Z,13.10
2019-05-03T20:47:25.367Z,13.10
2019-05-03T20:50:12.522Z,13.00
2019-05-03T20:52:41.968Z,12.90
2019-05-03T20:55:11.879Z,12.90
2019-05-03T20:57:41.261Z,12.90
2019-05-03T21:00:14.848Z,12.80
2019-05-03T21:02:51.541Z,12.80
2019-05-03T21:05:26.745Z,12.80
2019-05-03T21:07:47.060Z,12.70
2019-05-03T21:10:16.408Z,12.70
2019-05-03T21:12:45.765Z,12.70
2019-05-03T21:15:35.336Z,12.70
2019-05-03T21:18:05.918Z,12.60
2019-05-03T21:20:36.929Z,12.60
2019-05-03T21:23:08.490Z,12.60
2019-05-03T21:26:02.294Z,12.50
2019-05-03T21:28:11.024Z,12.50
2019-05-03T21:30:40.397Z,12.50
2019-05-03T21:33:09.797Z,12.50
2019-05-03T21:35:41.914Z,12.50
2019-05-03T21:38:10.246Z,12.50
2019-05-03T21:40:39.656Z,12.50
2019-05-03T21:43:09.036Z,12.50
2019-05-03T21:45:40.070Z,12.40
2019-05-03T21:48:14.578Z,12.40
2019-05-03T21:50:44.620Z,12.40
2019-05-03T21:53:14.749Z,12.40
2019-05-03T21:55:44.892Z,12.40
2019-05-03T21:58:16.323Z,12.40
2019-05-03T22:00:55.915Z,12.40
2019-05-03T22:03:25.368Z,12.40
2019-05-03T22:05:57.577Z,12.40
2019-05-03T22:08:26.218Z,12.40
2019-05-03T22:10:55.619Z,12.40
2019-05-03T22:13:24.950Z,12.40
2019-05-03T22:15:59.509Z,12.40
2019-05-03T22:18:30.531Z,12.40
2019-05-03T22:21:13.399Z,12.40
2019-05-03T22:23:59.153Z,12.30
2019-05-03T22:26:46.717Z,12.30
2019-05-03T22:29:17.203Z,12.20
2019-05-03T22:31:46.711Z,12.20
2019-05-03T22:34:16.086Z,12.20
2019-05-03T22:36:45.456Z,12.20
2019-05-03T22:39:15.802Z,12.20
2019-05-03T22:41:45.290Z,12.20
2019-05-03T22:44:17.050Z,12.20
2019-05-03T22:46:45.801Z,12.20
2019-05-03T22:49:15.678Z,12.20
2019-05-03T22:51:45.297Z,12.20
2019-05-03T22:54:15.399Z,12.20
2019-05-03T22:56:45.042Z,12.20
2019-05-03T22:59:15.068Z,12.20
2019-05-03T23:01:45.753Z,12.20
2019-05-03T23:04:15.390Z,12.20
2019-05-03T23:06:47.063Z,12.20
2019-05-03T23:09:16.098Z,12.20
2019-05-03T23:11:45.538Z,12.20
2019-05-03T23:14:15.288Z,12.20
2019-05-03T23:16:45.101Z,12.20
2019-05-03T23:19:15.129Z,12.20
2019-05-03T23:21:46.203Z,12.20
2019-05-03T23:24:15.568Z,12.10
2019-05-03T23:26:45.293Z,12.10
2019-05-03T23:29:15.786Z,12.10
2019-05-03T23:31:45.170Z,12.20
2019-05-03T23:34:14.588Z,12.20
2019-05-03T23:36:45.538Z,12.10
2019-05-03T23:39:15.020Z,12.10
2019-05-03T23:41:44.396Z,12.10
2019-05-03T23:44:15.180Z,12.10
2019-05-03T23:46:46.258Z,12.10
2019-05-03T23:49:16.094Z,12.10
2019-05-03T23:51:55.073Z,12.10
2019-05-03T23:54:24.836Z,12.00
2019-05-03T23:56:54.789Z,12.00
2019-05-03T23:59:24.221Z,12.00
